createdAt,value
2018-11-05T00:04:53.499Z,80.45
2018-11-05T00:09:56.806Z,81.34
2018-11-05T00:15:00.133Z,81.75
2018-11-05T00:20:03.778Z,81.81
2018-11-05T00:25:08.917Z,81.45
2018-11-05T00:30:14.135Z,82.09
2018-11-05T00:35:17.550Z,82.25
2018-11-05T00:40:21.022Z,82.09
2018-11-05T00:45:24.556Z,82.31
2018-11-05T00:50:28.249Z,82.05
2018-11-05T00:55:31.835Z,82.61
2018-11-05T01:00:35.285Z,82.60
2018-11-05T01:05:39.614Z,82.35
2018-11-05T01:10:44.101Z,82.57
2018-11-05T01:15:47.679Z,82.81
2018-11-05T01:20:51.129Z,82.49
2018-11-05T01:25:55.617Z,82.93
2018-11-05T01:30:59.845Z,83.11
2018-11-05T01:36:03.881Z,82.62
2018-11-05T01:41:07.190Z,82.96
2018-11-05T01:46:10.654Z,82.67
2018-11-05T01:51:14.155Z,82.97
2018-11-05T01:56:17.473Z,82.57
2018-11-05T02:01:21.132Z,82.65
2018-11-05T02:06:24.905Z,82.71
2018-11-05T02:11:28.725Z,83.07
2018-11-05T02:16:32.182Z,83.08
2018-11-05T02:21:35.605Z,82.49
2018-11-05T02:26:38.948Z,82.94
2018-11-05T02:31:42.275Z,82.58
2018-11-05T02:36:45.581Z,82.65
2018-11-05T02:41:48.911Z,82.30
2018-11-05T02:46:52.227Z,82.48
2018-11-05T02:51:55.537Z,82.37
2018-11-05T02:56:58.833Z,82.39
2018-11-05T03:02:02.138Z,82.73
2018-11-05T03:07:05.504Z,82.76
2018-11-05T03:12:08.850Z,83.29
2018-11-05T03:17:12.230Z,83.23
2018-11-05T03:22:15.518Z,83.32
2018-11-05T03:27:18.907Z,83.31
2018-11-05T03:32:22.272Z,83.44
2018-11-05T03:37:25.613Z,83.36
2018-11-05T03:42:28.930Z,82.85
2018-11-05T03:47:32.241Z,82.95
2018-11-05T03:52:35.583Z,83.16
2018-11-05T03:57:38.966Z,83.38
2018-11-05T04:02:42.424Z,83.01
2018-11-05T04:07:45.722Z,82.60
2018-11-05T04:12:49.088Z,82.80
2018-11-05T04:17:52.371Z,83.21
2018-11-05T04:22:55.746Z,82.79
2018-11-05T04:27:59.095Z,82.43
2018-11-05T04:33:02.392Z,82.49
2018-11-05T04:38:05.759Z,82.69
2018-11-05T04:43:09.069Z,82.33
2018-11-05T04:48:12.379Z,82.13
2018-11-05T04:53:15.700Z,82.21
2018-11-05T04:58:18.989Z,82.38
2018-11-05T05:03:22.409Z,82.46
2018-11-05T05:08:25.665Z,82.61
2018-11-05T05:13:28.979Z,82.31
2018-11-05T05:18:32.301Z,82.31
2018-11-05T05:23:35.623Z,81.94
2018-11-05T05:28:38.948Z,82.10
2018-11-05T05:33:42.335Z,82.18
2018-11-05T05:38:45.582Z,82.29
2018-11-05T05:43:48.917Z,82.32
2018-11-05T05:48:52.234Z,82.18
2018-11-05T05:53:55.512Z,82.54
2018-11-05T05:58:58.805Z,82.56
2018-11-05T06:04:02.146Z,82.42
2018-11-05T06:09:07.905Z,82.68
2018-11-05T06:14:11.226Z,82.59
2018-11-05T06:19:14.524Z,82.75
2018-11-05T06:24:17.829Z,82.61
2018-11-05T06:29:21.126Z,82.76
2018-11-05T06:34:24.423Z,82.91
2018-11-05T06:39:27.735Z,82.93
2018-11-05T06:44:31.042Z,82.47
2018-11-05T06:49:34.362Z,82.55
2018-11-05T06:54:37.654Z,82.01
2018-11-05T06:59:40.954Z,81.82
2018-11-05T07:04:44.259Z,81.85
2018-11-05T07:09:47.642Z,81.18
2018-11-05T07:14:50.941Z,80.98
2018-11-05T07:19:54.234Z,80.66
2018-11-05T07:24:57.537Z,80.52
2018-11-05T07:30:00.890Z,80.19
2018-11-05T07:35:04.505Z,79.93
2018-11-05T07:40:09.110Z,79.67
2018-11-05T07:45:17.703Z,79.07
2018-11-05T07:50:21.875Z,78.12
2018-11-05T07:55:25.236Z,77.36
2018-11-05T08:00:33.891Z,76.61
2018-11-05T08:05:37.231Z,76.49
2018-11-05T08:10:40.562Z,76.89
2018-11-05T08:15:43.896Z,77.36
2018-11-05T08:20:47.236Z,77.38
2018-11-05T08:25:50.666Z,77.31
2018-11-05T08:30:53.994Z,77.25
2018-11-05T08:35:57.442Z,77.57
2018-11-05T08:41:00.792Z,76.29
2018-11-05T08:46:04.124Z,75.51
2018-11-05T08:51:07.715Z,74.44
2018-11-05T08:56:10.878Z,73.56
2018-11-05T09:01:17.770Z,72.90
2018-11-05T09:06:21.178Z,72.31
2018-11-05T09:11:24.861Z,71.46
2018-11-05T09:16:28.239Z,69.94
2018-11-05T09:21:31.577Z,69.34
2018-11-05T09:26:34.928Z,69.16
2018-11-05T09:31:38.281Z,68.12
2018-11-05T09:36:41.610Z,67.84
2018-11-05T09:41:44.953Z,67.78
2018-11-05T09:46:48.258Z,68.24
2018-11-05T09:51:51.586Z,68.37
2018-11-05T09:56:54.934Z,69.56
2018-11-05T10:01:58.266Z,67.45
2018-11-05T10:07:01.595Z,67.37
2018-11-05T10:12:04.994Z,68.00
2018-11-05T10:17:08.450Z,68.18
2018-11-05T10:22:11.750Z,65.89
2018-11-05T10:27:15.121Z,64.66
2018-11-05T10:32:18.460Z,64.63
2018-11-05T10:37:21.856Z,65.02
2018-11-05T10:42:25.206Z,63.44
2018-11-05T10:47:28.557Z,62.74
2018-11-05T10:52:32.020Z,62.35
2018-11-05T10:57:35.381Z,61.65
2018-11-05T11:02:40.820Z,60.90
2018-11-05T11:07:44.157Z,60.77
2018-11-05T11:12:47.490Z,56.93
2018-11-05T11:17:51.822Z,50.67
2018-11-05T11:22:55.163Z,48.41
2018-11-05T11:27:58.639Z,47.65
2018-11-05T11:33:01.822Z,46.82
2018-11-05T11:38:05.561Z,48.86
2018-11-05T11:43:08.891Z,48.48
2018-11-05T11:48:12.225Z,44.82
2018-11-05T11:53:15.645Z,43.69
2018-11-05T11:58:18.883Z,41.80
2018-11-05T12:03:22.209Z,41.49
2018-11-05T12:08:25.528Z,41.83
2018-11-05T12:13:28.838Z,44.90
2018-11-05T12:18:32.134Z,47.05
2018-11-05T12:23:35.455Z,44.18
2018-11-05T12:28:38.771Z,44.70
2018-11-05T12:33:42.098Z,47.51
2018-11-05T12:38:45.483Z,47.88
2018-11-05T12:43:48.753Z,47.38
2018-11-05T12:48:52.080Z,48.14
2018-11-05T12:53:55.454Z,52.30
2018-11-05T12:58:59.272Z,54.93
2018-11-05T13:04:02.784Z,56.96
2018-11-05T13:09:08.279Z,59.03
2018-11-05T13:14:11.622Z,58.88
2018-11-05T13:19:15.008Z,58.47
2018-11-05T13:24:18.646Z,59.03
2018-11-05T13:29:22.017Z,58.21
2018-11-05T13:34:25.398Z,57.94
2018-11-05T13:39:28.746Z,58.00
2018-11-05T13:44:32.142Z,58.44
2018-11-05T13:49:35.636Z,58.52
2018-11-05T13:54:39.198Z,58.83
2018-11-05T13:59:42.434Z,59.49
2018-11-05T14:04:45.795Z,59.39
2018-11-05T14:09:49.142Z,59.16
2018-11-05T14:14:52.589Z,58.05
2018-11-05T14:19:56.021Z,58.41
2018-11-05T14:24:59.350Z,58.54
2018-11-05T14:30:03.130Z,58.81
2018-11-05T14:35:06.294Z,59.52
2018-11-05T14:40:11.379Z,59.27
2018-11-05T14:45:15.980Z,60.42
2018-11-05T14:50:20.610Z,60.60
2018-11-05T14:55:23.936Z,61.07
2018-11-05T15:00:28.169Z,61.14
2018-11-05T15:05:32.707Z,62.05
2018-11-05T15:10:36.574Z,61.97
2018-11-05T15:15:39.903Z,62.12
2018-11-05T15:20:43.258Z,62.34
2018-11-05T15:25:46.669Z,63.00
2018-11-05T15:30:49.960Z,62.86
2018-11-05T15:35:53.334Z,63.55
2018-11-05T15:40:57.310Z,64.42
2018-11-05T15:46:00.620Z,64.83
2018-11-05T15:51:06.139Z,65.00
2018-11-05T15:56:13.074Z,65.13
2018-11-05T16:01:17.503Z,65.30
2018-11-05T16:06:20.897Z,65.56
2018-11-05T16:11:24.387Z,65.67
2018-11-05T16:16:29.494Z,65.69
2018-11-05T16:21:34.213Z,66.01
2018-11-05T16:26:41.124Z,65.78
2018-11-05T16:31:46.122Z,65.72
2018-11-05T16:36:51.092Z,66.17
2018-11-05T16:41:54.538Z,65.77
2018-11-05T16:46:57.927Z,65.97
2018-11-05T16:52:01.390Z,66.20
2018-11-05T16:57:05.939Z,66.40
2018-11-05T17:02:15.567Z,66.40
2018-11-05T17:07:19.486Z,66.60
2018-11-05T17:12:22.842Z,65.91
2018-11-05T17:17:26.246Z,66.57
2018-11-05T17:22:29.785Z,66.74
2018-11-05T17:27:33.281Z,66.35
2018-11-05T17:32:36.732Z,66.50
2018-11-05T17:37:40.051Z,66.89
2018-11-05T17:42:44.014Z,66.57
2018-11-05T17:47:47.811Z,66.53
2018-11-05T17:52:51.192Z,66.74
2018-11-05T17:57:54.524Z,66.64
2018-11-05T18:02:57.855Z,66.75
2018-11-05T18:08:01.352Z,67.23
2018-11-05T18:13:04.934Z,66.72
2018-11-05T18:18:08.438Z,67.10
2018-11-05T18:23:11.902Z,67.15
2018-11-05T18:28:15.228Z,67.14
2018-11-05T18:33:18.728Z,67.05
2018-11-05T18:38:22.145Z,67.58
2018-11-05T18:43:25.534Z,67.29
2018-11-05T18:48:28.877Z,67.28
2018-11-05T18:53:32.265Z,67.51
2018-11-05T18:58:35.602Z,67.88
2018-11-05T19:03:39.019Z,67.88
2018-11-05T19:08:42.609Z,68.19
2018-11-05T19:13:45.982Z,68.33
2018-11-05T19:18:49.675Z,67.95
2018-11-05T19:23:53.214Z,68.40
2018-11-05T19:28:56.398Z,68.45
2018-11-05T19:33:59.882Z,69.32
2018-11-05T19:39:03.146Z,68.86
2018-11-05T19:44:06.610Z,69.25
2018-11-05T19:49:09.938Z,69.59
2018-11-05T19:54:13.377Z,69.46
2018-11-05T19:59:16.762Z,68.31
2018-11-05T20:04:20.165Z,68.57
2018-11-05T20:09:23.494Z,68.80
2018-11-05T20:14:26.859Z,68.74
2018-11-05T20:19:30.198Z,69.27
2018-11-05T20:24:33.896Z,68.94
2018-11-05T20:29:37.220Z,68.99
2018-11-05T20:34:40.897Z,69.01
2018-11-05T20:39:43.954Z,68.85
2018-11-05T20:44:47.400Z,67.97
2018-11-05T20:49:50.734Z,68.29
2018-11-05T20:54:54.050Z,68.72
2018-11-05T20:59:57.358Z,69.23
2018-11-05T21:05:00.746Z,69.54
2018-11-05T21:10:04.879Z,68.86
2018-11-05T21:15:13.279Z,69.37
2018-11-05T21:20:16.761Z,68.74
2018-11-05T21:25:20.083Z,68.75
2018-11-05T21:30:23.474Z,68.77
2018-11-05T21:35:26.753Z,69.30
2018-11-05T21:40:30.093Z,68.87
2018-11-05T21:45:33.409Z,69.00
2018-11-05T21:50:36.770Z,69.23
2018-11-05T21:55:40.156Z,69.39
2018-11-05T22:00:43.460Z,68.56
2018-11-05T22:05:46.761Z,69.21
2018-11-05T22:10:50.057Z,71.24
2018-11-05T22:15:53.385Z,71.80
2018-11-05T22:20:56.695Z,70.89
2018-11-05T22:26:00.063Z,71.86
2018-11-05T22:31:03.384Z,71.46
2018-11-05T22:36:06.795Z,70.74
2018-11-05T22:41:10.144Z,70.19
2018-11-05T22:46:13.458Z,69.94
2018-11-05T22:51:16.857Z,70.45
2018-11-05T22:56:20.152Z,69.39
2018-11-05T23:01:28.720Z,69.03
2018-11-05T23:06:32.754Z,69.69
2018-11-05T23:11:36.074Z,69.50
2018-11-05T23:16:39.490Z,69.55
2018-11-05T23:21:43.021Z,69.01
2018-11-05T23:26:46.314Z,68.83
2018-11-05T23:31:49.704Z,68.90
2018-11-05T23:36:53.154Z,69.31
2018-11-05T23:41:56.516Z,69.03
2018-11-05T23:46:59.823Z,69.08
2018-11-05T23:52:03.203Z,68.62
2018-11-05T23:57:06.518Z,68.87
